Teigen, MT

9:49 PM MST on December 17, 2014 (GMT -0700)
Lewistown Municipal | Change Station
CLOSE
Current Station
Airport
Location: Lewistown,
Elevation: 4167 ft
Nearby Weather Stations

Elev 4167 ft 47.05 °N, 109.47 °W | Updated 55 minutes ago

Overcast
Overcast
31 °F
Feels Like 28 °F
N
4
Wind Variable Wind from WSW

Today
High -- | Low -- °F
--% Chance of Precip.
Yesterday
High -- | Low -- °F
Precip. -- in
7:55 AM 4:26 PM
Waning Crescent, 17% visible
Pressure 29.97 in
Visibility 10.0 miles
Clouds Overcast 5500 ft
Windchill 28 °F
Dew Point 21 °F
Humidity 67%
Rainfall 0.01 in
Snow Depth Not available.
UV 0 out of 12
Pollen .10 out of 12
Air Quality Not available.
Flu Activity Not available.
METAR KLWT 180354Z AUTO 25003KT 10SM OVC055 M01/M06 A2988 RMK AO2 SLP149 T10061061

More Conditions Fewer Conditions

Pressure 29.97 in
Visibility 10.0 miles
Clouds Overcast 5500 ft
Windchill 28 °F
Dew Point 21 °F
Humidity 67%
Rainfall 0.01 in
Snow Depth Not available.
UV 0 out of 12
Pollen .10 out of 12
Air Quality Not available.
Flu Activity Not available.
METAR KLWT 180354Z AUTO 25003KT 10SM OVC055 M01/M06 A2988 RMK AO2 SLP149 T10061061

More Conditions Fewer Conditions

10-Day Weather Forecast

Almanac

Astronomy

Dec. 17, 2014 Rise Set
Actual Time
Civil Twilight
Nautical Twilight
Astronomical Twilight
Moon
Length of Visible Light
Length of Day
Tomorrow will be .
, % of the Moon is Illuminated

Today's Extremes

State Highs State Lows

Community

WunderPhotos

Upload Photos

1,778,883 photos uploaded!

WunderBlogs® & News

Nearby

Air Quality

  Air Quality AQ Index Pollutant
Not available.

Snow Depth

Station Depth Elevation

Earthquake Activity

City Distance Mag. Time & Date
Minimum magnitude displayed is 2.5.

Coastal Water Temperatures

Place Temperature

Nearby Weather Stations